Terminal Aerodrome Forecast
Issued by NWS Wichita, KS

Home | Current Version | Previous Version | Graphics & Text | Print | Product List | Glossary On
Versions: 1 2 3 4 5 6 7 8 9 10 11 12 13
000
FTUS43 KICT 151002 AAB
TAFICT
TAF AMD
KICT 151002Z 1510/1606 34012KT P6SM SKC
     FM151600 35014G20KT P6SM SKC
     FM160000 33004KT P6SM SKC=

USA.gov is the U.S. government's official web portal to all federal, state and local government web resources and services.